createdAt,value
2017-10-14T00:00:17.653Z,54.53
2017-10-14T00:01:26.993Z,54.53
2017-10-14T00:02:35.657Z,54.53
2017-10-14T00:03:44.953Z,54.43
2017-10-14T00:04:53.598Z,54.43
2017-10-14T00:06:02.253Z,54.62
2017-10-14T00:07:11.229Z,54.33
2017-10-14T00:08:20.859Z,54.43
2017-10-14T00:09:29.872Z,54.43
2017-10-14T00:10:38.532Z,54.72
2017-10-14T00:11:47.518Z,54.43
2017-10-14T00:12:56.524Z,54.53
2017-10-14T00:14:05.518Z,54.43
2017-10-14T00:15:14.171Z,54.33
2017-10-14T00:16:23.473Z,54.72
2017-10-14T00:17:32.467Z,54.72
2017-10-14T00:18:41.777Z,54.33
2017-10-14T00:19:50.770Z,54.72
2017-10-14T00:21:00.080Z,54.72
2017-10-14T00:22:10.042Z,54.82
2017-10-14T00:23:19.344Z,54.62
2017-10-14T00:24:28.980Z,54.72
2017-10-14T00:25:38.608Z,54.62
2017-10-14T00:26:47.605Z,54.43
2017-10-14T00:27:56.325Z,54.72
2017-10-14T00:29:05.959Z,54.62
2017-10-14T00:30:14.647Z,54.43
2017-10-14T00:31:24.304Z,54.62
2017-10-14T00:32:33.622Z,54.43
2017-10-14T00:33:42.617Z,54.62
2017-10-14T00:34:51.285Z,54.33
2017-10-14T00:36:01.954Z,54.53
2017-10-14T00:37:10.611Z,54.62
2017-10-14T00:38:19.268Z,54.43
2017-10-14T00:39:28.248Z,54.43
2017-10-14T00:40:37.240Z,54.43
2017-10-14T00:41:46.225Z,54.43
2017-10-14T00:42:55.201Z,54.43
2017-10-14T00:44:04.190Z,54.43
2017-10-14T00:45:13.183Z,54.43
2017-10-14T00:46:22.167Z,54.43
2017-10-14T00:47:31.512Z,54.43
2017-10-14T00:48:40.162Z,54.43
2017-10-14T00:49:49.157Z,54.43
2017-10-14T00:50:58.138Z,54.62
2017-10-14T00:52:07.124Z,54.43
2017-10-14T00:53:16.131Z,54.43
2017-10-14T00:54:24.858Z,54.62
2017-10-14T00:55:34.499Z,54.53
2017-10-14T00:56:43.183Z,54.53
2017-10-14T00:57:52.160Z,54.43
2017-10-14T00:59:01.151Z,54.72
2017-10-14T01:00:09.813Z,54.62
2017-10-14T01:01:19.132Z,54.43
2017-10-14T01:02:28.127Z,54.72
2017-10-14T01:03:36.839Z,54.72
2017-10-14T01:04:46.173Z,54.33
2017-10-14T01:05:55.549Z,54.43
2017-10-14T01:07:04.201Z,54.43
2017-10-14T01:08:13.842Z,54.33
2017-10-14T01:09:23.152Z,54.53
2017-10-14T01:10:32.506Z,54.53
2017-10-14T01:11:41.644Z,54.72
2017-10-14T01:12:50.955Z,54.62
2017-10-14T01:13:59.946Z,54.72
2017-10-14T01:15:09.272Z,54.72
2017-10-14T01:16:18.270Z,54.43
2017-10-14T01:17:26.945Z,54.24
2017-10-14T01:18:36.223Z,54.82
2017-10-14T01:19:45.222Z,54.72
2017-10-14T01:20:54.219Z,54.62
2017-10-14T01:22:03.540Z,54.72
2017-10-14T01:23:12.569Z,54.43
2017-10-14T01:24:21.901Z,54.43
2017-10-14T01:25:31.223Z,54.72
2017-10-14T01:26:40.863Z,54.62
2017-10-14T01:27:49.880Z,54.43
2017-10-14T01:28:59.216Z,54.43
2017-10-14T01:30:08.536Z,54.43
2017-10-14T01:31:17.522Z,54.53
2017-10-14T01:32:26.824Z,54.43
2017-10-14T01:33:36.131Z,54.72
2017-10-14T01:34:45.137Z,54.62
2017-10-14T01:35:54.461Z,54.43
2017-10-14T01:37:03.439Z,54.43
2017-10-14T01:38:12.090Z,54.53
2017-10-14T01:39:22.077Z,54.43
2017-10-14T01:40:31.395Z,54.53
2017-10-14T01:41:40.078Z,54.53
2017-10-14T01:42:49.064Z,54.33
2017-10-14T01:43:58.068Z,54.53
2017-10-14T01:45:07.068Z,54.43
2017-10-14T01:46:16.081Z,54.53
2017-10-14T01:47:25.115Z,54.43
2017-10-14T01:48:34.104Z,54.43
2017-10-14T01:49:43.095Z,54.43
2017-10-14T01:50:52.416Z,54.43
2017-10-14T01:52:01.822Z,54.43
2017-10-14T01:53:10.539Z,54.53
2017-10-14T01:54:19.248Z,54.62
2017-10-14T01:55:28.244Z,54.43
2017-10-14T01:56:37.225Z,54.53
2017-10-14T01:57:45.932Z,54.43
2017-10-14T01:58:54.932Z,54.53
2017-10-14T02:00:03.927Z,54.43
2017-10-14T02:01:12.923Z,54.53
2017-10-14T02:02:21.921Z,54.53
2017-10-14T02:03:30.913Z,54.43
2017-10-14T02:04:40.544Z,54.33
2017-10-14T02:05:49.219Z,54.43
2017-10-14T02:06:58.869Z,54.24
2017-10-14T02:08:07.870Z,54.43
2017-10-14T02:09:17.520Z,54.24
2017-10-14T02:10:26.828Z,54.43
2017-10-14T02:11:36.174Z,54.43
2017-10-14T02:12:45.167Z,54.43
2017-10-14T02:13:54.143Z,54.24
2017-10-14T02:15:03.517Z,54.43
2017-10-14T02:16:12.175Z,54.24
2017-10-14T02:17:20.839Z,54.43
2017-10-14T02:18:30.487Z,54.33
2017-10-14T02:19:39.468Z,54.33
2017-10-14T02:20:48.465Z,54.24
2017-10-14T02:21:58.129Z,54.33
2017-10-14T02:23:07.809Z,54.24
2017-10-14T02:24:16.804Z,54.33
2017-10-14T02:25:25.786Z,54.53
2017-10-14T02:26:34.537Z,54.33
2017-10-14T02:27:43.538Z,54.33
2017-10-14T02:28:52.218Z,54.33
2017-10-14T02:30:01.575Z,54.53
2017-10-14T02:31:10.913Z,54.53
2017-10-14T02:32:19.906Z,54.53
2017-10-14T02:33:29.235Z,54.53
2017-10-14T02:34:38.570Z,54.33
2017-10-14T02:35:47.564Z,54.43
2017-10-14T02:36:56.569Z,54.43
2017-10-14T02:38:05.643Z,54.33
2017-10-14T02:39:14.966Z,54.33
2017-10-14T02:40:23.668Z,54.53
2017-10-14T02:41:33.017Z,54.33
2017-10-14T02:42:42.017Z,54.43
2017-10-14T02:43:51.385Z,54.43
2017-10-14T02:45:00.718Z,54.53
2017-10-14T02:46:09.386Z,54.43
2017-10-14T02:47:18.069Z,54.53
2017-10-14T02:48:27.052Z,54.43
2017-10-14T02:49:36.162Z,54.33
2017-10-14T02:50:45.480Z,54.53
2017-10-14T02:51:54.132Z,54.53
2017-10-14T02:53:03.119Z,54.33
2017-10-14T02:54:12.427Z,54.43
2017-10-14T02:55:21.768Z,54.33
2017-10-14T02:56:30.482Z,54.53
2017-10-14T02:57:39.477Z,54.53
2017-10-14T02:58:49.124Z,54.43
2017-10-14T02:59:58.776Z,54.43
2017-10-14T03:01:07.815Z,54.43
2017-10-14T03:02:17.143Z,54.53
2017-10-14T03:03:26.487Z,54.53
2017-10-14T03:04:36.199Z,54.62
2017-10-14T03:05:45.173Z,54.33
2017-10-14T03:06:54.484Z,54.62
2017-10-14T03:08:03.153Z,54.53
2017-10-14T03:09:11.812Z,54.62
2017-10-14T03:10:20.820Z,54.33
2017-10-14T03:11:29.813Z,54.43
2017-10-14T03:12:39.559Z,54.53
2017-10-14T03:13:48.867Z,54.72
2017-10-14T03:14:58.509Z,54.43
2017-10-14T03:16:07.176Z,54.53
2017-10-14T03:17:15.845Z,54.62
2017-10-14T03:18:24.841Z,54.62
2017-10-14T03:19:34.181Z,54.62
2017-10-14T03:20:43.498Z,54.62
2017-10-14T03:21:52.825Z,54.62
2017-10-14T03:23:01.829Z,54.53
2017-10-14T03:24:10.816Z,54.62
2017-10-14T03:25:19.884Z,54.62
2017-10-14T03:26:28.874Z,54.53
2017-10-14T03:27:37.873Z,54.72
2017-10-14T03:28:47.191Z,54.82
2017-10-14T03:29:56.212Z,54.62
2017-10-14T03:31:04.876Z,54.43
2017-10-14T03:32:13.532Z,54.62
2017-10-14T03:33:22.555Z,54.62
2017-10-14T03:34:31.881Z,54.62
2017-10-14T03:35:41.213Z,54.72
2017-10-14T03:36:50.232Z,54.72
2017-10-14T03:37:59.554Z,54.62
2017-10-14T03:39:08.878Z,54.72
2017-10-14T03:40:18.234Z,54.82
2017-10-14T03:41:26.884Z,54.82
2017-10-14T03:42:35.877Z,55.01
2017-10-14T03:43:44.861Z,55.01
2017-10-14T03:44:53.510Z,55.1
2017-10-14T03:46:02.176Z,54.72
2017-10-14T03:47:11.195Z,54.91
2017-10-14T03:48:20.244Z,54.82
2017-10-14T03:49:29.240Z,54.82
2017-10-14T03:50:37.886Z,55.01
2017-10-14T03:51:46.877Z,54.79
2017-10-14T03:52:55.866Z,54.62
2017-10-14T03:54:05.523Z,55.1
2017-10-14T03:55:14.176Z,55.01
2017-10-14T03:56:23.168Z,54.82
2017-10-14T03:57:32.493Z,54.91
2017-10-14T03:58:41.162Z,55.01
2017-10-14T03:59:50.487Z,55.1
2017-10-14T04:00:59.216Z,55.1
2017-10-14T04:02:07.899Z,55.1
2017-10-14T04:03:17.214Z,55.1
2017-10-14T04:04:26.200Z,55.01
2017-10-14T04:05:35.193Z,54.62
2017-10-14T04:06:43.855Z,54.72
2017-10-14T04:07:52.519Z,55.2
2017-10-14T04:09:01.877Z,54.72
2017-10-14T04:10:11.254Z,54.72
2017-10-14T04:11:20.255Z,54.82
2017-10-14T04:12:29.599Z,54.72
2017-10-14T04:13:38.962Z,54.91
2017-10-14T04:14:47.937Z,54.91
2017-10-14T04:15:56.604Z,54.72
2017-10-14T04:17:05.254Z,54.82
2017-10-14T04:18:14.566Z,54.91
2017-10-14T04:19:23.577Z,55.01
2017-10-14T04:20:32.555Z,54.82
2017-10-14T04:21:41.531Z,54.91
2017-10-14T04:22:50.523Z,54.82
2017-10-14T04:23:59.846Z,54.91
2017-10-14T04:25:09.510Z,54.91
2017-10-14T04:26:18.176Z,54.72
2017-10-14T04:27:26.821Z,54.82
2017-10-14T04:28:36.455Z,55.01
2017-10-14T04:29:45.433Z,54.82
2017-10-14T04:30:54.430Z,55.01
2017-10-14T04:32:03.843Z,55.01
2017-10-14T04:33:12.490Z,55.01
2017-10-14T04:34:22.492Z,54.91
2017-10-14T04:35:31.467Z,54.82
2017-10-14T04:36:41.111Z,54.82
2017-10-14T04:37:50.115Z,54.91
2017-10-14T04:38:58.768Z,54.82
2017-10-14T04:40:08.431Z,54.82
2017-10-14T04:41:17.080Z,54.91
2017-10-14T04:42:26.068Z,55.01
2017-10-14T04:43:35.419Z,54.82
2017-10-14T04:44:44.117Z,55.01
2017-10-14T04:45:53.427Z,55.01
2017-10-14T04:47:03.404Z,55.01
2017-10-14T04:48:12.375Z,55.01
2017-10-14T04:49:21.364Z,54.72
2017-10-14T04:50:30.342Z,54.72
2017-10-14T04:51:39.339Z,55.2
2017-10-14T04:52:48.327Z,55.01
2017-10-14T04:53:57.320Z,54.91
2017-10-14T04:55:06.305Z,54.69
2017-10-14T04:56:15.407Z,54.72
2017-10-14T04:57:24.446Z,54.91
2017-10-14T04:58:33.783Z,54.72
2017-10-14T04:59:42.458Z,54.62
2017-10-14T05:00:51.781Z,54.6
2017-10-14T05:02:00.795Z,54.91
2017-10-14T05:03:09.872Z,55.01
2017-10-14T05:04:18.892Z,54.72
2017-10-14T05:05:28.876Z,54.91
2017-10-14T05:06:38.179Z,54.91
2017-10-14T05:07:46.888Z,54.72
2017-10-14T05:08:55.881Z,54.72
2017-10-14T05:10:04.875Z,54.98
2017-10-14T05:11:14.270Z,54.72
2017-10-14T05:12:22.935Z,54.72
2017-10-14T05:13:31.938Z,54.91
2017-10-14T05:14:40.612Z,54.69
2017-10-14T05:15:49.275Z,54.91
2017-10-14T05:16:58.660Z,54.72
2017-10-14T05:18:08.053Z,54.79
2017-10-14T05:19:17.064Z,54.91
2017-10-14T05:20:26.368Z,54.91
2017-10-14T05:21:35.032Z,54.62
2017-10-14T05:22:44.022Z,54.91
2017-10-14T05:23:53.019Z,54.88
2017-10-14T05:25:02.007Z,54.91
2017-10-14T05:26:11.001Z,54.88
2017-10-14T05:27:20.658Z,54.6
2017-10-14T05:28:29.651Z,54.69
2017-10-14T05:29:39.000Z,54.6
2017-10-14T05:30:47.996Z,54.98
2017-10-14T05:31:57.013Z,54.5
2017-10-14T05:33:06.367Z,54.5
2017-10-14T05:34:15.034Z,54.6
2017-10-14T05:35:24.397Z,54.5
2017-10-14T05:36:33.715Z,54.98
2017-10-14T05:37:42.720Z,54.5
2017-10-14T05:38:51.460Z,54.5
2017-10-14T05:40:00.784Z,54.69
2017-10-14T05:41:10.105Z,54.5
2017-10-14T05:42:19.443Z,54.5
2017-10-14T05:43:28.786Z,54.69
2017-10-14T05:44:38.101Z,54.69
2017-10-14T05:45:47.102Z,54.69
2017-10-14T05:46:55.768Z,54.6
2017-10-14T05:48:04.856Z,54.62
2017-10-14T05:49:13.898Z,54.6
2017-10-14T05:50:22.586Z,54.88
2017-10-14T05:51:31.244Z,54.79
2017-10-14T05:52:40.553Z,54.88
2017-10-14T05:53:49.868Z,54.79
2017-10-14T05:54:58.893Z,54.88
2017-10-14T05:56:08.219Z,54.79
2017-10-14T05:57:16.898Z,54.79
2017-10-14T05:58:26.256Z,54.88
2017-10-14T05:59:35.946Z,54.88
2017-10-14T06:00:45.577Z,54.79
2017-10-14T06:01:54.884Z,54.5
2017-10-14T06:03:04.238Z,54.79
2017-10-14T06:04:13.577Z,54.69
2017-10-14T06:05:23.630Z,54.69
2017-10-14T06:06:32.991Z,54.88
2017-10-14T06:07:42.002Z,54.79
2017-10-14T06:08:50.674Z,54.88
2017-10-14T06:09:59.343Z,54.69
2017-10-14T06:11:08.704Z,54.69
2017-10-14T06:12:17.605Z,54.69
2017-10-14T06:13:27.283Z,54.88
2017-10-14T06:14:36.622Z,54.69
2017-10-14T06:15:45.808Z,54.69
2017-10-14T06:16:55.178Z,54.91
2017-10-14T06:18:04.198Z,54.88
2017-10-14T06:19:13.194Z,54.98
2017-10-14T06:20:22.511Z,54.88
2017-10-14T06:21:31.181Z,54.91
2017-10-14T06:22:40.183Z,54.79
2017-10-14T06:23:48.851Z,54.91
2017-10-14T06:24:57.877Z,54.91
2017-10-14T06:26:06.536Z,54.88
2017-10-14T06:27:15.517Z,54.72
2017-10-14T06:28:24.189Z,54.91
2017-10-14T06:29:33.861Z,55.2
2017-10-14T06:30:43.185Z,55.1
2017-10-14T06:31:52.535Z,55.1
2017-10-14T06:33:01.533Z,54.88
2017-10-14T06:34:10.526Z,55.01
2017-10-14T06:35:19.855Z,54.82
2017-10-14T06:36:29.190Z,54.72
2017-10-14T06:37:37.848Z,54.62
2017-10-14T06:38:46.829Z,54.72
2017-10-14T06:39:55.831Z,54.62
2017-10-14T06:41:04.495Z,55.01
2017-10-14T06:42:13.837Z,54.82
2017-10-14T06:43:22.523Z,54.72
2017-10-14T06:44:31.512Z,54.62
2017-10-14T06:45:40.512Z,54.82
2017-10-14T06:46:49.914Z,54.33
2017-10-14T06:47:59.592Z,54.43
2017-10-14T06:49:08.927Z,54.62
2017-10-14T06:50:18.306Z,54.33
2017-10-14T06:51:27.610Z,54.43
2017-10-14T06:52:36.963Z,54.43
2017-10-14T06:53:46.015Z,54.33
2017-10-14T06:54:55.010Z,54.53
2017-10-14T06:56:03.673Z,54.33
2017-10-14T06:57:13.430Z,54.43
2017-10-14T06:58:22.423Z,54.43
2017-10-14T06:59:31.826Z,54.31
2017-10-14T07:00:41.508Z,54.33
2017-10-14T07:01:50.830Z,54.24
2017-10-14T07:02:59.822Z,54.33
2017-10-14T07:04:09.169Z,54.33
2017-10-14T07:05:18.169Z,54.33
2017-10-14T07:06:27.490Z,54.43
2017-10-14T07:07:36.489Z,54.43
2017-10-14T07:08:45.819Z,54.72
2017-10-14T07:09:55.797Z,54.43
2017-10-14T07:11:04.469Z,54.43
2017-10-14T07:12:13.148Z,54.43
2017-10-14T07:13:22.166Z,54.62
2017-10-14T07:14:31.597Z,54.33
2017-10-14T07:15:40.255Z,54.43
2017-10-14T07:16:49.553Z,54.62
2017-10-14T07:17:58.289Z,54.53
2017-10-14T07:19:06.951Z,54.62
2017-10-14T07:20:16.041Z,54.62
2017-10-14T07:21:25.461Z,54.43
2017-10-14T07:22:34.900Z,54.43
2017-10-14T07:23:43.601Z,54.62
2017-10-14T07:24:53.276Z,54.43
2017-10-14T07:26:01.956Z,54.43
2017-10-14T07:27:11.759Z,54.33
2017-10-14T07:28:21.906Z,54.33
2017-10-14T07:29:30.571Z,54.33
2017-10-14T07:30:40.257Z,54.53
2017-10-14T07:31:49.731Z,54.62
2017-10-14T07:32:59.532Z,54.24
2017-10-14T07:34:08.598Z,54.24
2017-10-14T07:35:18.325Z,54.43
2017-10-14T07:36:27.848Z,54.05
2017-10-14T07:37:36.966Z,54.53
2017-10-14T07:38:46.412Z,54.53
2017-10-14T07:39:55.752Z,53.95
2017-10-14T07:41:04.750Z,54.53
2017-10-14T07:42:13.609Z,54.53
2017-10-14T07:43:22.914Z,53.95
2017-10-14T07:44:31.937Z,54.05
2017-10-14T07:45:40.923Z,54.14
2017-10-14T07:46:49.920Z,54.33
2017-10-14T07:47:59.253Z,54.43
2017-10-14T07:49:08.238Z,54.33
2017-10-14T07:50:17.570Z,54.43
2017-10-14T07:51:26.905Z,54.43
2017-10-14T07:52:35.892Z,54.43
2017-10-14T07:53:45.205Z,54.62
2017-10-14T07:54:53.867Z,54.43
2017-10-14T07:56:03.177Z,54.43
2017-10-14T07:57:12.171Z,54.43
2017-10-14T07:58:21.168Z,54.05
2017-10-14T07:59:30.157Z,54.33
2017-10-14T08:00:38.810Z,54.62
2017-10-14T08:01:47.464Z,54.62
2017-10-14T08:02:57.121Z,54.62
2017-10-14T08:04:06.130Z,54.05
2017-10-14T08:05:15.769Z,54.53
2017-10-14T08:06:24.766Z,54.43
2017-10-14T08:07:34.757Z,54.43
2017-10-14T08:08:43.432Z,54.24
2017-10-14T08:09:52.456Z,54.24
2017-10-14T08:11:01.431Z,54.33
2017-10-14T08:12:10.755Z,54.24
2017-10-14T08:13:19.752Z,54.24
2017-10-14T08:14:29.403Z,54.43
2017-10-14T08:15:38.061Z,54.24
2017-10-14T08:16:47.386Z,54.05
2017-10-14T08:17:56.428Z,54.43
2017-10-14T08:19:06.082Z,54.53
2017-10-14T08:20:15.396Z,54.43
2017-10-14T08:21:24.745Z,53.95
2017-10-14T08:22:33.748Z,54.43
2017-10-14T08:23:42.747Z,54.05
2017-10-14T08:24:52.056Z,54.43
2017-10-14T08:26:01.051Z,54.05
2017-10-14T08:27:10.117Z,54.05
2017-10-14T08:28:19.433Z,54.43
2017-10-14T08:29:28.159Z,53.95
2017-10-14T08:30:37.484Z,54.05
2017-10-14T08:31:46.157Z,54.53
2017-10-14T08:32:54.824Z,53.75
2017-10-14T08:34:03.485Z,53.85
2017-10-14T08:35:13.143Z,54.14
2017-10-14T08:36:22.160Z,54.05
2017-10-14T08:37:31.577Z,54.14
2017-10-14T08:38:40.883Z,54.24
2017-10-14T08:39:49.874Z,54.24
2017-10-14T08:40:58.573Z,54.24
2017-10-14T08:42:07.562Z,53.95
2017-10-14T08:43:17.234Z,54.14
2017-10-14T08:44:26.226Z,53.97
2017-10-14T08:45:34.892Z,54.27
2017-10-14T08:46:44.219Z,54.24
2017-10-14T08:47:53.209Z,54.53
2017-10-14T08:49:02.224Z,54.17
2017-10-14T08:50:10.893Z,54.27
2017-10-14T08:51:19.948Z,54.27
2017-10-14T08:52:28.723Z,54.36
2017-10-14T08:53:37.712Z,54.36
2017-10-14T08:54:46.741Z,54.17
2017-10-14T08:55:55.829Z,54.17
2017-10-14T08:57:05.153Z,54.17
2017-10-14T08:58:14.211Z,54.27
2017-10-14T08:59:22.861Z,54.27
2017-10-14T09:00:32.859Z,53.97
2017-10-14T09:01:41.864Z,54.07
2017-10-14T09:02:51.526Z,54.36
2017-10-14T09:04:00.508Z,53.97
2017-10-14T09:05:09.167Z,54.07
2017-10-14T09:06:17.839Z,53.88
2017-10-14T09:07:26.857Z,53.78
2017-10-14T09:08:36.356Z,54.07
2017-10-14T09:09:45.385Z,53.97
2017-10-14T09:10:54.849Z,53.97
2017-10-14T09:12:03.682Z,53.88
2017-10-14T09:13:13.182Z,54.07
2017-10-14T09:14:22.542Z,54.07
2017-10-14T09:15:31.575Z,54.07
2017-10-14T09:16:40.224Z,53.97
2017-10-14T09:17:49.583Z,53.69
2017-10-14T09:18:58.250Z,53.88
2017-10-14T09:20:07.624Z,53.97
2017-10-14T09:21:16.683Z,53.97
2017-10-14T09:22:26.390Z,53.78
2017-10-14T09:23:36.027Z,54.07
2017-10-14T09:24:45.351Z,54.07
2017-10-14T09:25:54.684Z,53.97
2017-10-14T09:27:03.443Z,53.97
2017-10-14T09:28:12.105Z,53.97
2017-10-14T09:29:20.760Z,53.97
2017-10-14T09:30:29.761Z,54.36
2017-10-14T09:31:39.088Z,54.07
2017-10-14T09:32:48.083Z,54.36
2017-10-14T09:33:57.442Z,54.46
2017-10-14T09:35:06.518Z,54.65
2017-10-14T09:36:15.862Z,54.82
2017-10-14T09:37:25.642Z,55.2
2017-10-14T09:38:34.627Z,55.78
2017-10-14T09:39:43.665Z,55.94
2017-10-14T09:40:52.328Z,56.04
2017-10-14T09:42:01.334Z,55.94
2017-10-14T09:43:10.355Z,56.43
2017-10-14T09:44:19.768Z,56.72
2017-10-14T09:45:28.769Z,56.79
2017-10-14T09:46:38.158Z,56.98
2017-10-14T09:47:47.151Z,56.98
2017-10-14T09:48:55.814Z,57.07
2017-10-14T09:50:04.814Z,56.98
2017-10-14T09:51:13.584Z,56.88
2017-10-14T09:52:22.976Z,57.17
2017-10-14T09:53:32.020Z,56.98
2017-10-14T09:54:41.091Z,56.88
2017-10-14T09:55:50.475Z,57.07
2017-10-14T09:56:59.789Z,56.69
2017-10-14T09:58:09.454Z,56.88
2017-10-14T09:59:18.437Z,57.17
2017-10-14T10:00:27.096Z,57.17
2017-10-14T10:01:36.428Z,56.95
2017-10-14T10:02:45.756Z,57.17
2017-10-14T10:03:55.415Z,57.17
2017-10-14T10:05:04.495Z,57.17
2017-10-14T10:06:13.860Z,57.46
2017-10-14T10:07:22.869Z,57.56
2017-10-14T10:08:31.939Z,57.65
2017-10-14T10:09:40.955Z,57.27
2017-10-14T10:10:49.997Z,57.46
2017-10-14T10:11:58.677Z,57.24
2017-10-14T10:13:07.535Z,57.24
2017-10-14T10:14:16.863Z,57.27
2017-10-14T10:15:26.528Z,57.94
2017-10-14T10:16:35.839Z,57.92
2017-10-14T10:17:44.883Z,57.53
2017-10-14T10:18:53.548Z,57.34
2017-10-14T10:20:02.666Z,57.46
2017-10-14T10:21:11.762Z,57.46
2017-10-14T10:22:21.397Z,57.27
2017-10-14T10:23:30.398Z,57.37
2017-10-14T10:24:39.420Z,57.24
2017-10-14T10:25:48.749Z,57.82
2017-10-14T10:26:57.433Z,57.37
2017-10-14T10:28:06.451Z,57.62
2017-10-14T10:29:15.140Z,57.53
2017-10-14T10:30:24.465Z,57.43
2017-10-14T10:31:33.142Z,57.43
2017-10-14T10:32:42.259Z,57.65
2017-10-14T10:33:51.248Z,57.56
2017-10-14T10:35:00.560Z,57.24
2017-10-14T10:36:09.580Z,57.37
2017-10-14T10:37:18.627Z,57.37
2017-10-14T10:38:27.920Z,57.37
2017-10-14T10:39:36.919Z,57.34
2017-10-14T10:40:45.909Z,56.98
2017-10-14T10:41:55.303Z,57.27
2017-10-14T10:43:04.332Z,57.07
2017-10-14T10:44:13.314Z,57.17
2017-10-14T10:45:22.009Z,57.07
2017-10-14T10:46:31.333Z,56.88
2017-10-14T10:47:40.373Z,56.79
2017-10-14T10:48:50.031Z,57.07
2017-10-14T10:49:59.079Z,57.07
2017-10-14T10:51:07.734Z,57.27
2017-10-14T10:52:17.388Z,57.07
2017-10-14T10:53:26.396Z,57.17
2017-10-14T10:54:35.712Z,57.17
2017-10-14T10:55:45.076Z,56.88
2017-10-14T10:56:54.382Z,56.88
2017-10-14T10:58:03.056Z,56.79
2017-10-14T10:59:12.485Z,56.69
2017-10-14T11:00:21.361Z,56.88
2017-10-14T11:01:30.904Z,56.79
2017-10-14T11:02:39.971Z,57.07
2017-10-14T11:03:48.683Z,56.59
2017-10-14T11:04:57.930Z,56.59
2017-10-14T11:06:06.631Z,56.69
2017-10-14T11:07:15.617Z,56.49
2017-10-14T11:08:24.924Z,56.49
2017-10-14T11:09:34.289Z,56.72
2017-10-14T11:10:43.380Z,56.49
2017-10-14T11:11:52.701Z,56.4
2017-10-14T11:13:02.046Z,56.43
2017-10-14T11:14:11.043Z,56.43
2017-10-14T11:15:20.342Z,56.33
2017-10-14T11:16:29.013Z,56.43
2017-10-14T11:17:38.663Z,56.62
2017-10-14T11:18:47.651Z,56.62
2017-10-14T11:19:56.644Z,56.52
2017-10-14T11:21:05.302Z,56.72
2017-10-14T11:22:14.374Z,56.72
2017-10-14T11:23:23.708Z,56.14
2017-10-14T11:24:33.360Z,55.85
2017-10-14T11:25:42.024Z,55.85
2017-10-14T11:26:51.347Z,55.94
2017-10-14T11:28:01.095Z,56.04
2017-10-14T11:29:11.099Z,55.85
2017-10-14T11:30:20.100Z,56.04
2017-10-14T11:31:29.778Z,56.14
2017-10-14T11:32:39.086Z,56.14
2017-10-14T11:33:48.410Z,56.04
2017-10-14T11:34:57.097Z,56.14
2017-10-14T11:36:05.786Z,56.04
2017-10-14T11:37:14.797Z,56.33
2017-10-14T11:38:23.846Z,56.24
2017-10-14T11:39:32.854Z,56.04
2017-10-14T11:40:41.869Z,55.98
2017-10-14T11:41:50.870Z,55.76
2017-10-14T11:43:00.509Z,55.76
2017-10-14T11:44:09.523Z,55.88
2017-10-14T11:45:18.869Z,55.78
2017-10-14T11:46:27.533Z,55.88
2017-10-14T11:47:36.867Z,55.4
2017-10-14T11:48:46.532Z,55.2
2017-10-14T11:49:56.539Z,55.1
2017-10-14T11:51:05.885Z,55.59
2017-10-14T11:52:14.900Z,55.4
2017-10-14T11:53:23.576Z,55.4
2017-10-14T11:54:33.251Z,55.3
2017-10-14T11:55:42.236Z,55.2
2017-10-14T11:56:51.214Z,55.1
2017-10-14T11:58:00.512Z,54.82
2017-10-14T11:59:10.772Z,55.2
2017-10-14T12:00:22.839Z,55.23
2017-10-14T12:01:31.883Z,54.82
2017-10-14T12:02:40.544Z,55.1
2017-10-14T12:03:49.867Z,55.04
2017-10-14T12:04:58.879Z,54.94
2017-10-14T12:06:07.548Z,54.94
2017-10-14T12:07:16.947Z,55.13
2017-10-14T12:08:25.641Z,54.75
2017-10-14T12:09:34.656Z,54.94
2017-10-14T12:10:43.647Z,55.13
2017-10-14T12:11:52.632Z,55.04
2017-10-14T12:13:01.960Z,54.94
2017-10-14T12:14:10.957Z,54.75
2017-10-14T12:15:19.962Z,54.84
2017-10-14T12:16:28.617Z,54.75
2017-10-14T12:17:37.603Z,54.94
2017-10-14T12:18:46.929Z,54.75
2017-10-14T12:19:55.916Z,54.94
2017-10-14T12:21:04.651Z,54.84
2017-10-14T12:22:14.010Z,54.75
2017-10-14T12:23:23.389Z,54.65
2017-10-14T12:24:32.754Z,54.94
2017-10-14T12:25:41.441Z,54.84
2017-10-14T12:26:50.439Z,54.84
2017-10-14T12:28:00.113Z,54.75
2017-10-14T12:29:09.581Z,54.75
2017-10-14T12:30:18.602Z,54.65
2017-10-14T12:31:27.666Z,55.04
2017-10-14T12:32:37.315Z,54.75
2017-10-14T12:33:46.640Z,54.75
2017-10-14T12:34:55.710Z,54.94
2017-10-14T12:36:04.777Z,54.94
2017-10-14T12:37:13.777Z,55.04
2017-10-14T12:38:22.464Z,55.04
2017-10-14T12:39:31.465Z,55.04
2017-10-14T12:40:40.481Z,55.13
2017-10-14T12:41:49.181Z,55.13
2017-10-14T12:42:58.275Z,54.75
2017-10-14T12:44:06.956Z,54.84
2017-10-14T12:45:15.629Z,55.04
2017-10-14T12:46:24.295Z,54.84
2017-10-14T12:47:33.612Z,55.04
2017-10-14T12:48:42.386Z,55.07
2017-10-14T12:49:51.766Z,55.04
2017-10-14T12:51:01.099Z,55.16
2017-10-14T12:52:10.763Z,55.13
2017-10-14T12:53:19.752Z,55.13
2017-10-14T12:54:29.111Z,55.16
2017-10-14T12:55:38.114Z,54.84
2017-10-14T12:56:47.452Z,55.23
2017-10-14T12:57:56.464Z,55.23
2017-10-14T12:59:05.471Z,55.13
2017-10-14T13:00:14.502Z,54.84
2017-10-14T13:01:24.478Z,54.84
2017-10-14T13:02:33.487Z,54.97
2017-10-14T13:03:42.837Z,55.33
2017-10-14T13:04:51.838Z,55.04
2017-10-14T13:06:00.507Z,55.13
2017-10-14T13:07:10.166Z,55.04
2017-10-14T13:08:19.837Z,55.07
2017-10-14T13:09:29.509Z,55.07
2017-10-14T13:10:38.544Z,55.04
2017-10-14T13:11:47.562Z,54.94
2017-10-14T13:12:56.873Z,54.94
2017-10-14T13:14:05.554Z,55.23
2017-10-14T13:15:14.231Z,55.26
2017-10-14T13:16:23.251Z,55.04
2017-10-14T13:17:32.271Z,54.97
2017-10-14T13:18:41.312Z,55.07
2017-10-14T13:19:50.972Z,55.04
2017-10-14T13:21:00.278Z,55.16
2017-10-14T13:22:09.279Z,55.07
2017-10-14T13:23:18.275Z,55.07
2017-10-14T13:24:27.917Z,55.07
2017-10-14T13:25:36.903Z,54.97
2017-10-14T13:26:45.891Z,55.07
2017-10-14T13:27:54.885Z,55.04
2017-10-14T13:29:03.884Z,55.35
2017-10-14T13:30:13.521Z,55.16
2017-10-14T13:31:22.848Z,55.26
2017-10-14T13:32:31.869Z,55.16
2017-10-14T13:33:40.855Z,55.07
2017-10-14T13:34:49.854Z,55.16
2017-10-14T13:35:59.177Z,55.07
2017-10-14T13:37:08.492Z,55.07
2017-10-14T13:38:17.828Z,55.07
2017-10-14T13:39:26.855Z,55.16
2017-10-14T13:40:36.520Z,55.07
2017-10-14T13:41:45.517Z,55.16
2017-10-14T13:42:54.822Z,55.16
2017-10-14T13:44:03.805Z,55.07
2017-10-14T13:45:12.465Z,55.07
2017-10-14T13:46:21.800Z,55.07
2017-10-14T13:47:30.447Z,55.07
2017-10-14T13:48:40.105Z,55.07
2017-10-14T13:49:48.777Z,55.35
2017-10-14T13:50:57.452Z,54.97
2017-10-14T13:52:06.447Z,54.87
2017-10-14T13:53:15.439Z,55.35
2017-10-14T13:54:24.760Z,55.07
2017-10-14T13:55:34.073Z,55.07
2017-10-14T13:56:42.748Z,54.97
2017-10-14T13:57:51.758Z,55.35
2017-10-14T13:59:01.084Z,55.07
2017-10-14T14:00:10.397Z,55.07
2017-10-14T14:01:20.133Z,55.07
2017-10-14T14:02:29.520Z,54.97
2017-10-14T14:03:38.499Z,55.07
2017-10-14T14:04:47.508Z,54.97
2017-10-14T14:05:56.836Z,55.07
2017-10-14T14:07:06.138Z,54.97
2017-10-14T14:08:15.137Z,55.07
2017-10-14T14:09:24.479Z,54.87
2017-10-14T14:10:33.502Z,55.16
2017-10-14T14:11:42.479Z,55.07
2017-10-14T14:12:51.184Z,55.07
2017-10-14T14:14:00.519Z,55.07
2017-10-14T14:15:10.595Z,54.97
2017-10-14T14:16:20.233Z,55.07
2017-10-14T14:17:29.554Z,55.07
2017-10-14T14:18:38.213Z,55.35
2017-10-14T14:19:46.871Z,55.16
2017-10-14T14:20:56.181Z,55.07
2017-10-14T14:22:04.829Z,55.35
2017-10-14T14:23:13.494Z,55.26
2017-10-14T14:24:22.471Z,55.16
2017-10-14T14:25:31.119Z,55.26
2017-10-14T14:26:40.775Z,55.26
2017-10-14T14:27:49.456Z,55.16
2017-10-14T14:28:58.766Z,55.16
2017-10-14T14:30:07.410Z,54.97
2017-10-14T14:31:16.417Z,55.07
2017-10-14T14:32:25.060Z,55.07
2017-10-14T14:33:34.386Z,54.87
2017-10-14T14:34:43.710Z,55.16
2017-10-14T14:35:53.341Z,55.16
2017-10-14T14:37:01.993Z,55.16
2017-10-14T14:38:10.991Z,54.97
2017-10-14T14:39:19.654Z,55.35
2017-10-14T14:40:28.638Z,55.26
2017-10-14T14:41:37.630Z,55.26
2017-10-14T14:42:47.287Z,55.45
2017-10-14T14:43:56.295Z,55.26
2017-10-14T14:45:05.932Z,55.45
2017-10-14T14:46:15.603Z,55.35
2017-10-14T14:47:24.597Z,55.65
2017-10-14T14:48:33.582Z,55.45
2017-10-14T14:49:42.351Z,55.35
2017-10-14T14:50:51.338Z,55.26